Time;durP1;ratioP1;P1;durP2;ratioP2;P2;SDS_P1;SDS_P2;PMS_P1;PMS_P2;Temp;Humidity;BMP_temperature;BMP_pressure;BME280_temperature;BME280_humidity;BME280_pressure;Samples;Min_cycle;Max_cycle;Signal;HPM_P1;HPM_P2
2024/01/19 00:01:21;;;;;;;0.70;0.70;;;1.90;62.30;;;;;;5095126;28;20435;-71
2024/01/19 00:03:48;;;;;;;1.13;1.13;;;1.90;62.40;;;;;;5097106;28;20031;-70
2024/01/19 00:06:14;;;;;;;0.70;0.70;;;1.90;62.30;;;;;;5092297;28;20042;-71
2024/01/19 00:08:40;;;;;;;0.80;0.80;;;1.90;62.10;;;;;;5107466;28;20019;-70
2024/01/19 00:11:06;;;;;;;0.70;0.70;;;1.80;62.20;;;;;;5089908;28;20028;-71
2024/01/19 00:13:31;;;;;;;0.60;0.60;;;1.90;62.40;;;;;;5104196;28;20056;-71
2024/01/19 00:15:57;;;;;;;0.70;0.70;;;1.90;62.80;;;;;;5094083;28;20081;-71
2024/01/19 00:18:26;;;;;;;0.80;0.80;;;1.90;62.80;;;;;;5064014;28;20032;-71
2024/01/19 00:20:51;;;;;;;0.70;0.70;;;1.90;62.80;;;;;;5097607;28;20032;-69
2024/01/19 00:23:17;;;;;;;1.05;1.05;;;2.00;62.70;;;;;;5096810;28;20031;-67
2024/01/19 00:25:42;;;;;;;0.70;0.70;;;2.00;62.90;;;;;;5086808;28;20429;-68
2024/01/19 00:28:08;;;;;;;0.63;0.63;;;2.00;63.00;;;;;;5098686;28;20028;-67
2024/01/19 00:30:33;;;;;;;1.17;1.13;;;2.00;63.00;;;;;;5092288;28;20032;-67
2024/01/19 00:32:59;;;;;;;0.60;0.60;;;2.00;62.80;;;;;;5100625;28;20106;-67
2024/01/19 00:35:25;;;;;;;0.68;0.68;;;2.00;62.40;;;;;;5103183;28;20069;-67
2024/01/19 00:37:51;;;;;;;0.70;0.70;;;2.00;62.30;;;;;;5103411;28;20063;-68
2024/01/19 00:40:16;;;;;;;0.65;0.65;;;2.00;62.20;;;;;;5094438;28;20432;-68
2024/01/19 00:42:43;;;;;;;0.70;0.70;;;2.00;62.60;;;;;;5105697;28;20106;-68
2024/01/19 00:45:11;;;;;;;0.70;0.70;;;2.00;62.70;;;;;;5084438;28;20479;-67
2024/01/19 00:47:37;;;;;;;0.70;0.70;;;2.10;63.10;;;;;;5091871;28;20475;-68
2024/01/19 00:50:04;;;;;;;0.60;0.60;;;2.20;63.60;;;;;;5080166;28;20043;-67
2024/01/19 00:52:30;;;;;;;1.55;1.45;;;2.30;63.90;;;;;;5105176;28;20051;-67
2024/01/19 00:54:55;;;;;;;0.60;0.60;;;2.30;63.90;;;;;;5095147;28;20035;-68
2024/01/19 00:57:21;;;;;;;0.70;0.70;;;2.40;63.90;;;;;;5100791;28;20031;-68
2024/01/19 00:59:47;;;;;;;0.73;0.73;;;2.40;63.80;;;;;;5091859;28;20118;-67
2024/01/19 01:02:12;;;;;;;0.60;0.60;;;2.40;63.70;;;;;;5106131;28;20360;-67
2024/01/19 01:04:38;;;;;;;1.48;1.33;;;2.40;63.70;;;;;;5094940;28;20047;-68
2024/01/19 01:07:03;;;;;;;1.02;1.02;;;2.40;63.80;;;;;;5106614;28;20020;-67
2024/01/19 01:09:30;;;;;;;0.63;0.63;;;2.50;63.80;;;;;;5078153;28;20475;-68
2024/01/19 01:11:56;;;;;;;0.60;0.60;;;2.50;64.00;;;;;;5103748;28;20072;-68
2024/01/19 01:14:21;;;;;;;0.70;0.70;;;2.60;64.20;;;;;;5095717;28;20085;-69
2024/01/19 01:16:47;;;;;;;0.70;0.70;;;2.70;64.40;;;;;;5108620;28;20024;-67
2024/01/19 01:19:12;;;;;;;0.80;0.80;;;2.80;64.60;;;;;;5073985;28;20491;-67
2024/01/19 01:21:38;;;;;;;0.60;0.60;;;2.90;64.80;;;;;;5081755;28;20028;-68
2024/01/19 01:24:03;;;;;;;0.70;0.70;;;3.00;64.90;;;;;;5098876;28;20458;-68
2024/01/19 01:26:29;;;;;;;0.73;0.73;;;3.10;65.00;;;;;;5108249;28;20034;-67
2024/01/19 01:28:56;;;;;;;0.70;0.70;;;3.10;64.90;;;;;;5107560;28;20091;-67
2024/01/19 01:31:22;;;;;;;0.70;0.70;;;3.10;64.50;;;;;;5098483;28;20467;-68
2024/01/19 01:33:48;;;;;;;1.13;1.13;;;3.00;64.00;;;;;;5100231;28;20032;-68
2024/01/19 01:36:14;;;;;;;0.80;0.80;;;3.00;63.60;;;;;;5106273;28;20088;-68
2024/01/19 01:38:40;;;;;;;0.70;0.70;;;2.90;63.20;;;;;;5083437;28;20488;-68
2024/01/19 01:41:05;;;;;;;0.70;0.70;;;2.80;62.90;;;;;;5096565;28;20050;-67
2024/01/19 01:43:31;;;;;;;1.25;1.17;;;2.70;62.80;;;;;;5102571;28;20475;-67
2024/01/19 01:45:57;;;;;;;0.70;0.70;;;2.70;62.60;;;;;;5103563;28;20497;-69
2024/01/19 01:48:24;;;;;;;0.70;0.70;;;2.60;62.60;;;;;;5106845;28;20467;-69
2024/01/19 01:50:50;;;;;;;0.60;0.60;;;2.60;62.50;;;;;;5093941;28;20054;-67
2024/01/19 01:53:19;;;;;;;1.00;1.00;;;2.50;62.40;;;;;;5104629;28;20467;-67
2024/01/19 01:55:47;;;;;;;1.05;0.93;;;2.50;62.40;;;;;;5077860;28;20043;-67
2024/01/19 01:58:14;;;;;;;0.68;0.68;;;2.40;62.30;;;;;;5091002;28;20032;-67
2024/01/19 02:00:42;;;;;;;0.68;0.68;;;2.40;62.50;;;;;;5093499;28;20391;-67
2024/01/19 02:03:08;;;;;;;0.82;0.82;;;2.40;63.00;;;;;;5086621;28;20530;-68
2024/01/19 02:05:33;;;;;;;0.60;0.60;;;2.50;63.60;;;;;;5096095;28;20059;-67
2024/01/19 02:07:59;;;;;;;1.10;1.10;;;2.50;63.80;;;;;;5098588;28;20029;-68
2024/01/19 02:10:25;;;;;;;0.80;0.80;;;2.60;63.70;;;;;;5096021;28;20051;-67
2024/01/19 02:12:50;;;;;;;0.73;0.73;;;2.60;63.40;;;;;;5111263;28;20024;-71
2024/01/19 02:15:20;;;;;;;0.77;0.77;;;2.50;63.10;;;;;;5101330;28;20100;-71
2024/01/19 02:17:47;;;;;;;0.63;0.63;;;2.50;63.00;;;;;;5102938;28;20625;-71
2024/01/19 02:20:12;;;;;;;0.60;0.60;;;2.60;63.30;;;;;;5090868;28;20516;-71
2024/01/19 02:22:39;;;;;;;0.70;0.70;;;2.60;63.70;;;;;;5096307;28;20036;-71
2024/01/19 02:25:05;;;;;;;7.53;2.08;;;2.70;63.90;;;;;;5086015;28;20035;-71
2024/01/19 02:27:32;;;;;;;0.60;0.60;;;2.80;64.00;;;;;;5100510;28;20024;-72
2024/01/19 02:29:58;;;;;;;0.60;0.60;;;2.80;63.70;;;;;;5088450;28;20028;-71
2024/01/19 02:32:23;;;;;;;0.85;0.85;;;2.80;63.50;;;;;;5110506;28;20045;-72
2024/01/19 02:34:49;;;;;;;0.70;0.70;;;2.80;63.30;;;;;;5096343;28;20042;-72
2024/01/19 02:37:14;;;;;;;0.70;0.70;;;2.70;63.00;;;;;;5101530;28;20064;-72
2024/01/19 02:39:40;;;;;;;0.70;0.70;;;2.70;62.80;;;;;;5095414;28;20060;-72
2024/01/19 02:42:07;;;;;;;0.75;0.75;;;2.60;62.70;;;;;;5108415;28;20020;-72
2024/01/19 02:44:33;;;;;;;1.02;1.02;;;2.60;62.60;;;;;;5104752;28;20032;-72
2024/01/19 02:46:58;;;;;;;0.75;0.75;;;2.60;62.50;;;;;;5110116;28;20039;-72
2024/01/19 02:49:24;;;;;;;0.65;0.65;;;2.50;62.50;;;;;;5096466;28;20032;-70
2024/01/19 02:51:49;;;;;;;0.70;0.70;;;2.50;62.50;;;;;;5105701;28;20037;-70
2024/01/19 02:54:15;;;;;;;0.60;0.60;;;2.50;62.60;;;;;;5099034;28;20493;-70
2024/01/19 02:56:40;;;;;;;0.73;0.73;;;2.50;62.60;;;;;;5110841;28;20067;-71
2024/01/19 02:59:06;;;;;;;0.70;0.70;;;2.50;62.80;;;;;;5094922;28;20406;-71
2024/01/19 03:01:32;;;;;;;0.70;0.70;;;2.50;62.90;;;;;;5102688;28;20386;-70
2024/01/19 03:03:58;;;;;;;1.15;1.15;;;2.50;63.00;;;;;;5101323;28;20032;-70
2024/01/19 03:06:23;;;;;;;0.98;0.98;;;2.50;63.10;;;;;;5110411;28;20429;-71
2024/01/19 03:08:49;;;;;;;0.80;0.80;;;2.70;63.50;;;;;;5095342;28;20036;-70
2024/01/19 03:11:15;;;;;;;0.80;0.80;;;2.70;64.00;;;;;;5100490;28;20501;-70
2024/01/19 03:13:40;;;;;;;0.63;0.63;;;2.80;64.20;;;;;;5103809;28;20039;-70
2024/01/19 03:16:07;;;;;;;0.70;0.70;;;2.90;64.40;;;;;;5107567;28;20042;-71
2024/01/19 03:18:32;;;;;;;0.70;0.70;;;3.00;64.30;;;;;;5078682;28;20028;-70
2024/01/19 03:20:58;;;;;;;1.67;1.58;;;3.00;64.30;;;;;;5096797;28;20501;-70
2024/01/19 03:23:23;;;;;;;0.70;0.70;;;3.00;64.30;;;;;;5106005;28;20032;-70
2024/01/19 03:25:50;;;;;;;0.60;0.60;;;3.10;64.20;;;;;;5104736;28;20348;-71
2024/01/19 03:28:16;;;;;;;0.68;0.68;;;3.10;64.20;;;;;;5098639;28;20035;-70
2024/01/19 03:30:41;;;;;;;0.82;0.82;;;3.10;64.10;;;;;;5096435;28;20044;-70
2024/01/19 03:33:07;;;;;;;1.70;1.60;;;3.20;64.10;;;;;;5100326;28;20031;-71
2024/01/19 03:35:33;;;;;;;1.10;1.10;;;3.20;64.20;;;;;;5106463;28;20084;-71
2024/01/19 03:37:58;;;;;;;0.90;0.90;;;3.20;64.30;;;;;;5100809;28;20036;-71
2024/01/19 03:40:24;;;;;;;1.17;1.08;;;3.30;64.40;;;;;;5094257;28;20102;-70
2024/01/19 03:42:49;;;;;;;0.93;0.93;;;3.40;64.60;;;;;;5109818;28;20058;-71
2024/01/19 03:45:15;;;;;;;0.70;0.70;;;3.40;64.90;;;;;;5099467;28;20382;-71
2024/01/19 03:47:49;;;;;;;1.00;1.00;;;3.50;65.00;;;;;;5103170;28;20032;-71
2024/01/19 03:50:15;;;;;;;0.60;0.60;;;3.60;65.20;;;;;;5090206;28;20093;-67
2024/01/19 03:52:41;;;;;;;0.70;0.70;;;3.70;65.30;;;;;;5100565;28;20040;-67
2024/01/19 03:55:07;;;;;;;0.95;0.95;;;3.70;65.30;;;;;;5100050;28;20375;-66
2024/01/19 03:57:32;;;;;;;1.15;1.08;;;3.80;65.40;;;;;;5093842;28;20476;-66
2024/01/19 03:59:58;;;;;;;0.85;0.85;;;3.80;65.30;;;;;;5093894;28;20085;-66
2024/01/19 04:02:23;;;;;;;1.38;1.27;;;3.80;65.20;;;;;;5098287;28;20073;-67
2024/01/19 04:04:49;;;;;;;0.60;0.60;;;3.80;64.80;;;;;;5094468;28;20088;-67
2024/01/19 04:07:15;;;;;;;1.20;1.17;;;3.70;65.00;;;;;;5106484;28;20012;-67
2024/01/19 04:09:41;;;;;;;0.70;0.70;;;3.80;65.10;;;;;;5085169;28;20028;-67
2024/01/19 04:12:17;;;;;;;0.68;0.68;;;3.80;65.20;;;;;;5086121;28;20025;-67
2024/01/19 04:14:44;;;;;;;0.60;0.60;;;3.80;65.30;;;;;;5086579;28;20063;-67
2024/01/19 04:17:11;;;;;;;0.80;0.80;;;3.80;65.00;;;;;;5096020;28;20483;-66
2024/01/19 04:19:37;;;;;;;0.75;0.75;;;3.70;64.60;;;;;;5103004;28;20557;-67
2024/01/19 04:22:03;;;;;;;0.60;0.60;;;3.60;64.30;;;;;;5105564;28;20078;-67
2024/01/19 04:24:29;;;;;;;0.70;0.70;;;3.50;64.10;;;;;;5093778;28;20108;-69
2024/01/19 04:26:55;;;;;;;0.60;0.60;;;3.50;64.00;;;;;;5098595;28;20102;-67
2024/01/19 04:29:20;;;;;;;0.60;0.60;;;3.40;64.00;;;;;;5105171;28;20012;-68
2024/01/19 04:31:46;;;;;;;0.68;0.68;;;3.30;63.90;;;;;;5102540;28;20031;-68
2024/01/19 04:34:11;;;;;;;0.88;0.88;;;3.30;63.80;;;;;;5090950;28;20032;-67
2024/01/19 04:36:37;;;;;;;1.88;1.77;;;3.20;63.70;;;;;;5085948;28;20028;-67
2024/01/19 04:39:03;;;;;;;0.70;0.70;;;3.20;63.70;;;;;;5093517;28;20055;-68
2024/01/19 04:41:29;;;;;;;0.80;0.80;;;3.10;63.50;;;;;;5088631;28;20115;-67
2024/01/19 04:43:55;;;;;;;1.90;1.65;;;3.10;63.60;;;;;;5081805;28;20042;-68
2024/01/19 04:46:20;;;;;;;0.68;0.68;;;3.00;63.60;;;;;;5108125;28;20023;-67
2024/01/19 04:48:46;;;;;;;0.80;0.80;;;3.00;63.70;;;;;;5093919;28;20540;-68
2024/01/19 04:51:11;;;;;;;0.60;0.60;;;3.00;63.80;;;;;;5098047;28;20072;-67
2024/01/19 04:53:37;;;;;;;0.70;0.70;;;3.00;63.70;;;;;;5091831;28;20032;-67
2024/01/19 04:56:06;;;;;;;1.15;1.15;;;2.90;63.60;;;;;;5096072;28;20047;-68
2024/01/19 04:58:36;;;;;;;0.70;0.70;;;2.90;63.60;;;;;;5108638;28;20023;-71
2024/01/19 05:01:03;;;;;;;0.60;0.60;;;2.90;63.60;;;;;;5096363;28;20038;-71
2024/01/19 05:03:28;;;;;;;1.23;1.23;;;2.80;63.60;;;;;;5103685;28;20069;-71
2024/01/19 05:05:54;;;;;;;1.00;1.00;;;2.80;63.60;;;;;;5103752;28;20035;-71
2024/01/19 05:08:19;;;;;;;0.60;0.60;;;2.80;63.70;;;;;;5096273;28;20026;-71
2024/01/19 05:10:45;;;;;;;1.25;1.15;;;2.90;63.80;;;;;;5090548;28;20368;-71
2024/01/19 05:13:10;;;;;;;6.35;2.08;;;2.80;63.70;;;;;;5091614;28;20379;-71
2024/01/19 05:15:36;;;;;;;1.05;1.00;;;2.90;63.70;;;;;;5097725;28;20054;-71
2024/01/19 05:18:02;;;;;;;1.02;1.02;;;2.80;63.80;;;;;;5099830;28;20035;-71
2024/01/19 05:20:29;;;;;;;0.70;0.70;;;2.80;63.90;;;;;;5092817;28;20070;-70
2024/01/19 05:22:55;;;;;;;0.70;0.70;;;2.90;63.90;;;;;;5078113;28;20025;-71
2024/01/19 05:25:21;;;;;;;0.70;0.70;;;2.80;63.90;;;;;;5104541;28;20034;-70
2024/01/19 05:27:53;;;;;;;0.70;0.70;;;2.90;63.80;;;;;;5100775;28;20047;-71
2024/01/19 05:30:19;;;;;;;0.60;0.60;;;2.90;64.00;;;;;;5091185;28;20051;-70
2024/01/19 05:32:44;;;;;;;0.80;0.80;;;2.90;64.00;;;;;;5092572;28;20028;-70
2024/01/19 05:35:10;;;;;;;2.22;2.10;;;2.90;63.80;;;;;;5099377;28;20032;-70
2024/01/19 05:37:36;;;;;;;1.42;1.10;;;2.90;63.70;;;;;;5082701;28;20386;-70
2024/01/19 05:40:03;;;;;;;1.17;1.17;;;2.90;63.80;;;;;;5098227;28;20040;-71
2024/01/19 05:42:29;;;;;;;1.58;0.93;;;3.00;64.10;;;;;;5107848;28;20168;-71
2024/01/19 05:44:54;;;;;;;0.68;0.68;;;3.00;64.50;;;;;;5097742;28;20098;-72
2024/01/19 05:47:20;;;;;;;0.80;0.80;;;3.10;64.60;;;;;;5108488;28;20089;-72
2024/01/19 05:49:45;;;;;;;0.88;0.88;;;3.20;64.70;;;;;;5097852;28;20024;-73
2024/01/19 05:52:13;;;;;;;0.80;0.80;;;3.20;64.70;;;;;;5103406;28;20027;-72
2024/01/19 05:54:39;;;;;;;0.70;0.70;;;3.20;64.80;;;;;;5106507;28;20115;-71
2024/01/19 05:57:05;;;;;;;0.70;0.70;;;3.30;64.80;;;;;;5110552;28;20043;-72
2024/01/19 05:59:30;;;;;;;0.65;0.65;;;3.30;64.70;;;;;;5082107;28;20040;-72
2024/01/19 06:01:56;;;;;;;0.68;0.68;;;3.30;64.70;;;;;;5107087;28;20489;-72
2024/01/19 06:04:22;;;;;;;5.07;2.65;;;3.30;64.60;;;;;;5099259;28;20035;-72
2024/01/19 06:06:48;;;;;;;2.00;1.90;;;3.30;64.40;;;;;;5111406;28;20106;-71
2024/01/19 06:09:13;;;;;;;1.02;1.02;;;3.30;64.40;;;;;;5096155;28;20040;-72
2024/01/19 06:11:39;;;;;;;1.48;1.35;;;3.40;64.40;;;;;;5099599;28;20446;-72
2024/01/19 06:14:04;;;;;;;0.80;0.80;;;3.30;64.30;;;;;;5103969;28;20020;-72
2024/01/19 06:16:30;;;;;;;1.00;1.00;;;3.30;64.40;;;;;;5096666;28;20138;-71
2024/01/19 06:18:57;;;;;;;1.02;1.02;;;3.30;64.60;;;;;;5110918;28;20012;-72
2024/01/19 06:21:22;;;;;;;0.93;0.93;;;3.40;64.70;;;;;;5102785;28;20479;-71
2024/01/19 06:23:48;;;;;;;0.75;0.75;;;3.40;64.70;;;;;;5097349;28;20058;-71
2024/01/19 06:26:13;;;;;;;1.65;1.48;;;3.40;64.80;;;;;;5097595;28;20035;-71
2024/01/19 06:28:40;;;;;;;0.93;0.93;;;3.50;64.90;;;;;;5093686;28;20476;-71
2024/01/19 06:31:07;;;;;;;0.98;0.98;;;3.50;65.10;;;;;;5094716;28;20024;-71
2024/01/19 06:33:33;;;;;;;0.90;0.90;;;3.60;65.20;;;;;;5089195;28;20032;-70
2024/01/19 06:35:58;;;;;;;2.35;2.15;;;3.70;65.30;;;;;;5079879;28;20037;-71
2024/01/19 06:38:24;;;;;;;0.70;0.70;;;3.70;65.20;;;;;;5085103;28;20060;-71
2024/01/19 06:40:50;;;;;;;0.70;0.70;;;3.80;65.20;;;;;;5092415;28;20027;-71
2024/01/19 06:43:16;;;;;;;0.68;0.68;;;3.80;65.30;;;;;;5091654;28;20027;-71
2024/01/19 06:45:42;;;;;;;2.15;2.05;;;3.90;65.30;;;;;;5104587;28;20036;-71
2024/01/19 06:48:08;;;;;;;2.13;1.98;;;3.90;65.20;;;;;;5099163;28;20020;-71
2024/01/19 06:50:34;;;;;;;1.17;1.13;;;3.90;65.30;;;;;;5090049;28;20485;-71
2024/01/19 06:53:00;;;;;;;1.17;1.13;;;4.00;65.40;;;;;;5092609;28;20080;-71
2024/01/19 06:55:26;;;;;;;1.33;1.27;;;4.00;65.40;;;;;;5092282;28;20450;-71
2024/01/19 06:57:52;;;;;;;2.67;1.35;;;4.00;65.30;;;;;;5093539;28;20067;-71
2024/01/19 07:00:18;;;;;;;2.20;2.00;;;4.00;65.30;;;;;;5095032;28;20493;-71
2024/01/19 07:02:44;;;;;;;1.08;1.08;;;4.00;65.30;;;;;;5094851;28;20115;-72
2024/01/19 07:05:09;;;;;;;3.70;1.88;;;4.10;65.40;;;;;;5106518;28;20176;-72
2024/01/19 07:07:35;;;;;;;0.93;0.73;;;4.10;65.40;;;;;;5102909;28;20481;-73
2024/01/19 07:10:00;;;;;;;0.77;0.77;;;4.20;65.30;;;;;;5094783;28;20024;-72
2024/01/19 07:12:26;;;;;;;1.15;1.13;;;4.20;65.40;;;;;;5102572;28;20388;-73
2024/01/19 07:14:52;;;;;;;1.02;1.02;;;4.20;65.50;;;;;;5089138;28;20039;-71
2024/01/19 07:17:17;;;;;;;1.38;1.27;;;4.20;65.60;;;;;;5107388;28;20523;-73
2024/01/19 07:19:43;;;;;;;0.85;0.85;;;4.30;65.40;;;;;;5092965;28;20044;-72
2024/01/19 07:22:08;;;;;;;0.70;0.70;;;4.30;65.40;;;;;;5107409;28;20493;-72
2024/01/19 07:24:35;;;;;;;0.90;0.90;;;4.30;65.50;;;;;;5092211;28;20025;-72
2024/01/19 07:27:02;;;;;;;1.15;1.10;;;4.30;65.60;;;;;;5108987;28;20499;-72
2024/01/19 07:29:27;;;;;;;0.75;0.75;;;4.40;65.60;;;;;;5094320;28;20116;-72
2024/01/19 07:31:53;;;;;;;1.50;1.40;;;4.40;65.70;;;;;;5097859;28;20066;-72
2024/01/19 07:34:18;;;;;;;1.40;1.30;;;4.50;65.80;;;;;;5102730;28;20016;-72
2024/01/19 07:36:44;;;;;;;1.70;1.60;;;4.50;65.80;;;;;;5089552;28;20028;-72
2024/01/19 07:39:10;;;;;;;1.20;1.20;;;4.60;65.80;;;;;;5107417;28;20020;-70
2024/01/19 07:41:35;;;;;;;1.65;1.55;;;4.60;65.70;;;;;;5091894;28;20106;-71
2024/01/19 07:44:01;;;;;;;0.70;0.70;;;4.60;65.70;;;;;;5092453;28;20024;-70
2024/01/19 07:46:26;;;;;;;0.70;0.70;;;4.60;65.60;;;;;;5092349;28;20032;-70
2024/01/19 07:48:52;;;;;;;0.80;0.80;;;4.60;65.70;;;;;;5092451;28;20027;-70
2024/01/19 07:51:19;;;;;;;2.20;1.38;;;4.70;65.80;;;;;;5093432;28;20028;-70
2024/01/19 07:53:45;;;;;;;1.55;1.35;;;4.70;65.70;;;;;;5095754;28;20065;-70
2024/01/19 07:56:10;;;;;;;3.53;1.02;;;4.70;65.80;;;;;;5089089;28;20379;-72
2024/01/19 07:58:36;;;;;;;3.05;2.83;;;4.70;65.70;;;;;;5096048;28;20559;-71
2024/01/19 08:01:03;;;;;;;3.63;2.75;;;4.70;65.70;;;;;;5066455;28;20067;-71
2024/01/19 08:03:28;;;;;;;0.63;0.63;;;4.70;65.70;;;;;;5108794;28;20100;-71
2024/01/19 08:05:54;;;;;;;2.35;1.88;;;4.70;65.80;;;;;;5105284;28;20492;-71
2024/01/19 08:08:19;;;;;;;0.60;0.60;;;4.80;65.70;;;;;;5094869;28;20028;-71
2024/01/19 08:10:45;;;;;;;1.00;1.00;;;4.80;65.70;;;;;;5095814;28;20078;-71
2024/01/19 08:13:12;;;;;;;1.15;1.15;;;4.90;66.00;;;;;;5106807;28;20145;-71
2024/01/19 08:15:40;;;;;;;2.35;1.90;;;4.90;65.90;;;;;;5100653;28;20538;-71
2024/01/19 08:18:06;;;;;;;1.30;1.25;;;4.90;65.80;;;;;;5099268;28;20446;-71
2024/01/19 08:20:33;;;;;;;1.80;1.70;;;4.90;65.70;;;;;;5091624;28;20166;-71
2024/01/19 08:23:02;;;;;;;0.60;0.60;;;4.90;65.80;;;;;;5107274;28;20028;-71
2024/01/19 08:25:28;;;;;;;0.63;0.63;;;5.00;65.90;;;;;;5100183;28;20382;-71
2024/01/19 08:27:53;;;;;;;1.10;1.08;;;5.00;66.00;;;;;;5082595;28;20115;-68
2024/01/19 08:30:20;;;;;;;1.40;1.38;;;5.10;66.00;;;;;;5092849;28;20036;-68
2024/01/19 08:32:45;;;;;;;1.00;1.00;;;5.10;66.10;;;;;;5099515;28;20052;-68
2024/01/19 08:35:11;;;;;;;0.80;0.80;;;5.10;66.20;;;;;;5087009;28;20507;-68
2024/01/19 08:37:37;;;;;;;1.80;1.70;;;5.20;66.20;;;;;;5088973;28;20042;-69
2024/01/19 08:40:05;;;;;;;0.65;0.65;;;5.20;66.20;;;;;;5083679;28;20097;-68
2024/01/19 08:42:31;;;;;;;0.60;0.60;;;5.20;66.10;;;;;;5108594;28;20020;-69
2024/01/19 08:44:56;;;;;;;0.70;0.70;;;5.20;66.20;;;;;;5073093;28;20371;-68
2024/01/19 08:47:22;;;;;;;0.60;0.60;;;5.30;66.40;;;;;;5076001;28;20035;-68
2024/01/19 08:49:47;;;;;;;0.55;0.55;;;5.30;66.40;;;;;;5093011;28;20082;-69
2024/01/19 08:52:13;;;;;;;0.90;0.90;;;5.30;66.30;;;;;;5089101;28;20545;-69
2024/01/19 08:54:38;;;;;;;0.70;0.70;;;5.40;66.50;;;;;;5102630;28;20089;-69
2024/01/19 08:57:04;;;;;;;3.08;1.65;;;5.50;66.50;;;;;;5106003;28;20135;-69
2024/01/19 08:59:31;;;;;;;0.75;0.75;;;5.50;66.30;;;;;;5081379;28;20028;-69
2024/01/19 09:01:57;;;;;;;0.85;0.85;;;5.50;66.40;;;;;;5103960;28;20023;-69
2024/01/19 09:04:24;;;;;;;2.95;1.65;;;5.60;66.50;;;;;;5093595;28;20032;-69
2024/01/19 09:06:50;;;;;;;1.45;1.27;;;5.70;66.40;;;;;;5108087;28;20593;-70
2024/01/19 09:09:15;;;;;;;0.80;0.80;;;5.70;66.10;;;;;;5072273;28;20013;-71
2024/01/19 09:11:41;;;;;;;0.73;0.73;;;5.70;66.30;;;;;;5091220;28;20050;-71
2024/01/19 09:14:09;;;;;;;0.70;0.70;;;5.80;66.30;;;;;;5086321;28;20031;-71
2024/01/19 09:16:35;;;;;;;0.77;0.77;;;5.80;66.10;;;;;;5107938;28;20016;-71
2024/01/19 09:19:00;;;;;;;1.00;0.93;;;5.90;65.90;;;;;;5087613;28;20106;-72
2024/01/19 09:21:26;;;;;;;3.05;1.45;;;5.90;65.70;;;;;;5080967;28;20437;-72
2024/01/19 09:23:52;;;;;;;0.70;0.70;;;5.80;65.80;;;;;;5099463;28;20024;-72
2024/01/19 09:26:22;;;;;;;0.75;0.75;;;5.80;65.90;;;;;;5104047;28;20403;-72
2024/01/19 09:28:47;;;;;;;0.77;0.77;;;5.90;65.70;;;;;;5092914;28;20375;-72
2024/01/19 09:31:14;;;;;;;0.65;0.65;;;5.80;65.40;;;;;;5093125;28;20024;-72
2024/01/19 09:33:39;;;;;;;0.60;0.60;;;5.90;65.50;;;;;;5091452;28;20498;-72
2024/01/19 09:36:06;;;;;;;0.88;0.88;;;5.90;65.40;;;;;;5103410;28;20094;-72
2024/01/19 09:38:34;;;;;;;1.75;1.65;;;5.90;65.20;;;;;;5104580;28;20142;-72
2024/01/19 09:41:58;;;;;;;1.25;1.15;;;6.00;65.40;;;;;;5095169;28;20077;-72
2024/01/19 09:44:29;;;;;;;0.60;0.60;;;6.10;65.70;;;;;;5013225;28;20038;-73
2024/01/19 09:47:02;;;;;;;1.02;1.02;;;6.00;65.10;;;;;;4999557;28;20584;-73
2024/01/19 09:49:39;;;;;;;1.10;1.10;;;6.00;65.50;;;;;;5051050;28;20038;-74
2024/01/19 09:52:29;;;;;;;3.60;1.77;;;6.20;65.30;;;;;;5104270;28;20022;-73
2024/01/19 09:54:55;;;;;;;1.70;1.60;;;6.20;65.30;;;;;;5086347;28;20039;-73
2024/01/19 09:57:20;;;;;;;0.70;0.70;;;6.30;65.60;;;;;;5104465;28;20032;-74
2024/01/19 09:59:46;;;;;;;0.60;0.60;;;6.50;66.10;;;;;;5092207;28;20059;-74
2024/01/19 10:02:15;;;;;;;1.65;1.55;;;6.70;65.50;;;;;;5074031;28;20024;-74
2024/01/19 10:04:41;;;;;;;2.35;2.15;;;6.80;65.50;;;;;;5100109;28;20039;-74
2024/01/19 10:07:07;;;;;;;0.70;0.70;;;6.90;65.20;;;;;;5102502;28;20036;-74
2024/01/19 10:09:33;;;;;;;1.20;1.20;;;7.00;65.10;;;;;;5080836;28;20029;-75
2024/01/19 10:11:59;;;;;;;1.33;1.23;;;7.10;65.00;;;;;;5092044;28;20020;-74
2024/01/19 10:14:26;;;;;;;0.65;0.65;;;7.10;64.40;;;;;;5090176;28;20527;-74
2024/01/19 10:16:52;;;;;;;1.05;1.05;;;7.20;64.80;;;;;;5107479;28;20383;-74
2024/01/19 10:19:20;;;;;;;0.98;0.98;;;7.20;64.40;;;;;;5089797;28;20511;-75
2024/01/19 10:21:46;;;;;;;0.82;0.82;;;7.20;64.40;;;;;;5092153;28;20028;-75
2024/01/19 10:24:19;;;;;;;1.75;1.23;;;7.20;64.00;;;;;;5079370;28;20030;-74
2024/01/19 10:26:53;;;;;;;0.90;0.90;;;7.20;63.80;;;;;;5077810;28;20039;-74
2024/01/19 10:29:20;;;;;;;1.42;1.33;;;7.20;64.00;;;;;;5104145;28;20360;-74
2024/01/19 10:31:48;;;;;;;0.88;0.88;;;7.20;64.30;;;;;;5098073;28;20486;-74
2024/01/19 10:34:21;;;;;;;0.70;0.70;;;7.10;64.40;;;;;;5092890;28;20095;-74
2024/01/19 10:36:48;;;;;;;0.60;0.60;;;7.10;64.20;;;;;;5110278;28;20028;-73
2024/01/19 10:39:22;;;;;;;0.95;0.95;;;7.00;64.00;;;;;;5087006;28;20451;-73
2024/01/19 10:42:02;;;;;;;0.80;0.80;;;6.90;64.00;;;;;;5095791;28;20020;-73
2024/01/19 10:44:28;;;;;;;0.70;0.70;;;7.10;65.30;;;;;;5096547;28;20821;-72
2024/01/19 10:46:56;;;;;;;2.13;1.40;;;7.50;65.90;;;;;;5081319;28;20435;-72
2024/01/19 10:49:21;;;;;;;0.80;0.80;;;7.70;65.30;;;;;;5106543;28;20022;-72
2024/01/19 10:51:47;;;;;;;0.65;0.65;;;7.80;65.30;;;;;;5097620;28;20559;-72
2024/01/19 10:54:24;;;;;;;1.05;1.05;;;8.10;65.20;;;;;;5103294;28;20023;-72
2024/01/19 10:57:00;;;;;;;0.82;0.80;;;8.40;65.70;;;;;;5110386;28;20020;-72
2024/01/19 10:59:25;;;;;;;0.80;0.80;;;8.60;64.60;;;;;;5093478;28;20024;-72
2024/01/19 11:01:58;;;;;;;0.70;0.70;;;8.60;63.80;;;;;;5103786;28;20047;-72
2024/01/19 11:04:24;;;;;;;1.85;1.58;;;8.60;63.50;;;;;;5097358;28;20364;-72
2024/01/19 11:06:50;;;;;;;2.65;1.23;;;8.60;63.70;;;;;;5105008;28;20088;-72
2024/01/19 11:09:15;;;;;;;1.40;1.30;;;8.70;63.80;;;;;;5106986;28;20048;-72
2024/01/19 11:11:57;;;;;;;2.05;1.85;;;8.70;63.50;;;;;;5085256;28;20105;-72
2024/01/19 11:14:24;;;;;;;0.70;0.70;;;8.80;64.00;;;;;;5098606;28;20020;-72
2024/01/19 11:16:52;;;;;;;0.80;0.80;;;9.00;63.50;;;;;;5104732;28;20051;-72
2024/01/19 11:19:20;;;;;;;0.65;0.65;;;9.10;64.00;;;;;;5106528;28;20153;-72
2024/01/19 11:21:46;;;;;;;0.73;0.73;;;9.20;64.30;;;;;;5104279;28;20020;-72
2024/01/19 11:24:14;;;;;;;0.70;0.70;;;9.30;62.70;;;;;;5103756;28;20113;-73
2024/01/19 11:27:01;;;;;;;0.90;0.90;;;9.30;61.60;;;;;;5110231;28;20482;-73
2024/01/19 11:29:33;;;;;;;1.00;1.00;;;9.20;62.20;;;;;;5089529;28;20042;-73
2024/01/19 11:32:00;;;;;;;0.70;0.70;;;9.10;63.00;;;;;;5099758;28;20531;-73
2024/01/19 11:34:45;;;;;;;1.80;1.67;;;9.10;62.90;;;;;;5100655;28;20020;-73
2024/01/19 11:37:43;;;;;;;0.60;0.60;;;9.10;62.70;;;;;;5066591;28;20028;-73
2024/01/19 11:40:29;;;;;;;1.70;1.60;;;9.20;64.60;;;;;;5087880;28;20029;-73
2024/01/19 11:42:55;;;;;;;1.05;1.02;;;9.50;65.10;;;;;;5078775;28;20023;-73
2024/01/19 11:45:36;;;;;;;1.08;1.00;;;9.60;64.40;;;;;;5105092;28;20057;-73
2024/01/19 11:48:02;;;;;;;3.50;1.75;;;9.60;63.70;;;;;;5100436;28;20459;-73
2024/01/19 11:50:47;;;;;;;3.42;1.88;;;9.40;63.40;;;;;;5073414;28;20093;-73
2024/01/19 11:53:14;;;;;;;1.45;1.35;;;9.30;62.30;;;;;;5084644;28;20019;-73
2024/01/19 11:55:45;;;;;;;1.13;0.90;;;9.00;62.80;;;;;;5106139;28;20510;-73
2024/01/19 11:58:34;;;;;;;0.68;0.68;;;9.10;64.30;;;;;;5104202;28;20387;-71
2024/01/19 12:01:02;;;;;;;1.83;1.70;;;9.30;65.60;;;;;;5081389;28;20019;-71
2024/01/19 12:03:29;;;;;;;0.55;0.55;;;9.60;64.30;;;;;;5097738;28;20479;-71
2024/01/19 12:05:57;;;;;;;0.57;0.57;;;9.60;64.30;;;;;;5103719;28;20070;-71
2024/01/19 12:08:24;;;;;;;1.08;1.08;;;9.70;63.50;;;;;;5069490;28;20041;-71
2024/01/19 12:11:07;;;;;;;0.57;0.57;;;9.60;63.30;;;;;;5095994;28;20024;-70
2024/01/19 12:13:35;;;;;;;0.60;0.60;;;9.50;63.50;;;;;;5099282;28;20043;-70
2024/01/19 12:16:02;;;;;;;0.70;0.70;;;9.40;63.70;;;;;;5073719;28;20032;-71
2024/01/19 12:18:28;;;;;;;0.70;0.70;;;9.40;63.50;;;;;;5108867;28;20102;-70
2024/01/19 12:20:55;;;;;;;4.75;1.45;;;9.30;62.90;;;;;;5082781;28;20123;-71
2024/01/19 12:23:21;;;;;;;1.45;1.35;;;9.10;63.20;;;;;;5103409;28;20453;-71
2024/01/19 12:25:47;;;;;;;1.08;1.08;;;8.90;62.90;;;;;;5094942;28;20459;-71
2024/01/19 12:28:15;;;;;;;0.85;0.85;;;8.70;63.10;;;;;;5085808;28;20023;-71
2024/01/19 12:30:40;;;;;;;1.38;1.27;;;8.60;63.40;;;;;;5086600;28;20021;-71
2024/01/19 12:33:14;;;;;;;2.05;1.85;;;8.50;63.20;;;;;;5106936;28;20024;-71
2024/01/19 12:35:39;;;;;;;0.50;0.50;;;8.30;63.30;;;;;;5094918;28;20119;-71
2024/01/19 12:38:05;;;;;;;2.22;1.25;;;8.20;63.50;;;;;;5098332;28;20127;-71
2024/01/19 12:40:34;;;;;;;0.60;0.60;;;8.10;63.90;;;;;;5095015;28;20036;-71
2024/01/19 12:43:03;;;;;;;1.40;1.33;;;8.00;64.20;;;;;;5085117;28;20042;-71
2024/01/19 12:45:29;;;;;;;0.77;0.77;;;8.10;65.20;;;;;;5105326;28;20050;-71
2024/01/19 12:47:55;;;;;;;1.27;1.17;;;8.20;66.00;;;;;;5091550;28;20024;-71
2024/01/19 12:50:20;;;;;;;1.75;1.55;;;8.20;65.80;;;;;;5070484;28;20028;-71
2024/01/19 12:52:46;;;;;;;0.98;0.98;;;8.20;65.70;;;;;;5107856;28;20209;-71
2024/01/19 12:55:12;;;;;;;0.70;0.70;;;8.20;65.30;;;;;;5094390;28;20031;-70
2024/01/19 12:57:38;;;;;;;1.42;1.33;;;8.10;64.70;;;;;;5096070;28;20024;-71